createdAt,value
2019-02-28T00:01:32.537Z,65.37
2019-02-28T00:04:03.678Z,66.77
2019-02-28T00:06:32.939Z,63.93
2019-02-28T00:09:02.101Z,65.80
2019-02-28T00:11:32.464Z,68.77
2019-02-28T00:14:01.674Z,65.87
2019-02-28T00:16:30.830Z,67.13
2019-02-28T00:19:00.038Z,67.77
2019-02-28T00:21:29.171Z,69.27
2019-02-28T00:23:58.685Z,74.17
2019-02-28T00:26:27.858Z,72.70
2019-02-28T00:29:00.490Z,70.57
2019-02-28T00:31:27.972Z,68.57
2019-02-28T00:33:57.138Z,74.30
2019-02-28T00:36:26.288Z,75.90
2019-02-28T00:38:55.823Z,82.30
2019-02-28T00:41:25.090Z,75.77
2019-02-28T00:43:56.868Z,73.77
2019-02-28T00:46:25.203Z,77.37
2019-02-28T00:48:54.402Z,80.17
2019-02-28T00:51:23.577Z,87.23
2019-02-28T00:53:52.765Z,79.57
2019-02-28T00:56:21.898Z,80.30
2019-02-28T00:58:51.083Z,77.67
2019-02-28T01:01:20.228Z,71.87
2019-02-28T01:03:49.380Z,77.17
2019-02-28T01:06:18.579Z,80.07
2019-02-28T01:08:47.734Z,76.57
2019-02-28T01:11:17.855Z,74.03
2019-02-28T01:13:47.007Z,77.63
2019-02-28T01:16:19.423Z,81.73
2019-02-28T01:18:47.285Z,81.47
2019-02-28T01:21:16.533Z,82.37
2019-02-28T01:23:45.706Z,84.43
2019-02-28T01:26:14.949Z,86.07
2019-02-28T01:28:44.129Z,80.37
2019-02-28T01:31:13.320Z,82.30
2019-02-28T01:33:42.470Z,79.80
2019-02-28T01:36:12.181Z,86.77
2019-02-28T01:38:42.707Z,77.50
2019-02-28T01:41:11.968Z,79.93
2019-02-28T01:43:41.141Z,76.87
2019-02-28T01:46:10.327Z,79.57
2019-02-28T01:48:39.583Z,81.07
2019-02-28T01:51:08.728Z,87.43
2019-02-28T01:53:37.878Z,83.97
2019-02-28T01:56:07.071Z,82.70
2019-02-28T01:58:36.236Z,83.07
2019-02-28T02:01:05.842Z,78.80
2019-02-28T02:05:55.408Z,86.33
2019-02-28T02:08:24.615Z,80.03
2019-02-28T02:10:55.842Z,79.30
2019-02-28T02:13:24.790Z,81.77
2019-02-28T02:15:54.045Z,79.40
2019-02-28T02:18:23.235Z,88.17
2019-02-28T02:20:52.384Z,83.00
2019-02-28T02:23:21.685Z,79.73
2019-02-28T02:25:50.932Z,86.93
2019-02-28T02:28:20.143Z,83.30
2019-02-28T02:30:50.914Z,89.10
2019-02-28T02:33:20.161Z,88.07
2019-02-28T02:35:49.414Z,83.37
2019-02-28T02:38:18.604Z,87.87
2019-02-28T02:40:47.752Z,86.40
2019-02-28T02:43:16.960Z,87.77
2019-02-28T02:45:46.173Z,87.57
2019-02-28T02:48:15.363Z,84.57
2019-02-28T02:50:44.517Z,86.50
2019-02-28T02:53:13.875Z,92.30
2019-02-28T02:55:43.092Z,92.50
2019-02-28T02:58:12.278Z,92.87
2019-02-28T03:00:41.510Z,89.30
2019-02-28T03:03:10.759Z,89.53
2019-02-28T03:05:39.935Z,90.33
2019-02-28T03:08:09.234Z,89.47
2019-02-28T03:10:38.399Z,93.10
2019-02-28T03:13:07.557Z,86.80
2019-02-28T03:15:37.297Z,87.90
2019-02-28T03:18:05.361Z,94.50
2019-02-28T03:20:33.583Z,91.57
2019-02-28T03:23:04.044Z,95.43
2019-02-28T03:25:32.157Z,91.90
2019-02-28T03:28:00.289Z,91.10
2019-02-28T03:30:32.330Z,95.23
2019-02-28T03:32:58.265Z,96.03
2019-02-28T03:35:26.388Z,99.27
2019-02-28T03:37:56.547Z,94.90
2019-02-28T03:40:24.644Z,97.30
2019-02-28T03:42:52.794Z,88.00
2019-02-28T03:45:20.844Z,93.87
2019-02-28T03:47:48.933Z,92.60
2019-02-28T03:50:21.863Z,94.63
2019-02-28T03:52:47.633Z,98.30
2019-02-28T03:55:15.706Z,96.47
2019-02-28T03:57:43.924Z,89.10
2019-02-28T04:00:13.892Z,94.50
2019-02-28T04:02:42.173Z,95.27
2019-02-28T04:05:10.356Z,94.30
2019-02-28T04:07:38.798Z,97.83
2019-02-28T04:10:07.233Z,97.67
2019-02-28T04:12:35.448Z,95.50
2019-02-28T04:15:05.791Z,96.93
2019-02-28T04:17:33.264Z,96.27
2019-02-28T04:20:02.905Z,95.67
2019-02-28T04:22:30.980Z,91.27
2019-02-28T04:24:59.079Z,99.27
2019-02-28T04:27:27.169Z,92.77
2019-02-28T04:29:55.278Z,96.33
2019-02-28T04:32:27.664Z,102.73
2019-02-28T04:34:53.185Z,100.83
2019-02-28T04:37:21.256Z,99.33
2019-02-28T04:39:49.656Z,97.17
2019-02-28T04:42:17.733Z,99.27
2019-02-28T04:44:45.848Z,99.27
2019-02-28T04:47:13.958Z,100.47
2019-02-28T04:49:42.410Z,106.50
2019-02-28T04:52:11.809Z,110.90
2019-02-28T04:54:40.264Z,111.67
2019-02-28T04:57:08.343Z,102.63
2019-02-28T04:59:36.461Z,112.83
2019-02-28T05:02:04.542Z,106.17
2019-02-28T05:04:33.180Z,108.90
2019-02-28T05:07:02.578Z,110.00
2019-02-28T05:09:30.677Z,103.90
2019-02-28T05:11:58.762Z,100.23
2019-02-28T05:14:26.882Z,104.10
2019-02-28T05:16:54.972Z,101.83
2019-02-28T05:19:23.038Z,105.23
2019-02-28T05:21:53.580Z,111.30
2019-02-28T05:24:20.868Z,101.10
2019-02-28T05:26:48.969Z,97.23
2019-02-28T05:29:17.047Z,98.43
2019-02-28T05:31:45.156Z,102.83
2019-02-28T05:34:16.006Z,104.33
2019-02-28T05:36:43.133Z,113.00
2019-02-28T05:39:11.293Z,109.63
2019-02-28T05:41:39.408Z,113.80
2019-02-28T05:44:07.483Z,117.83
2019-02-28T05:46:35.620Z,108.63
2019-02-28T05:49:03.747Z,111.50
2019-02-28T05:51:31.983Z,110.50
2019-02-28T05:54:00.075Z,119.27
2019-02-28T05:56:32.764Z,107.27
2019-02-28T05:58:57.922Z,113.17
2019-02-28T06:01:26.011Z,113.23
2019-02-28T06:03:54.137Z,102.43
2019-02-28T06:06:22.239Z,108.70
2019-02-28T06:08:50.325Z,108.03
2019-02-28T06:11:18.398Z,120.27
2019-02-28T06:13:49.630Z,107.80
2019-02-28T06:16:16.494Z,111.93
2019-02-28T06:18:44.558Z,109.67
2019-02-28T06:21:12.672Z,113.73
2019-02-28T06:23:41.539Z,102.77
2019-02-28T06:26:09.760Z,106.57
2019-02-28T06:28:37.860Z,104.40
2019-02-28T06:31:05.960Z,103.87
2019-02-28T06:33:34.429Z,107.97
2019-02-28T06:36:04.560Z,109.93
2019-02-28T06:38:32.384Z,104.83
2019-02-28T06:41:00.533Z,104.23
2019-02-28T06:43:28.659Z,104.40
2019-02-28T06:45:56.782Z,100.20
2019-02-28T06:48:26.602Z,109.70
2019-02-28T06:50:54.631Z,106.80
2019-02-28T06:53:22.693Z,109.00
2019-02-28T06:55:50.811Z,103.50
2019-02-28T06:58:18.885Z,108.07
2019-02-28T07:00:47.561Z,114.30
2019-02-28T07:03:16.368Z,114.60
2019-02-28T07:05:44.492Z,109.47
2019-02-28T07:08:12.665Z,112.93
2019-02-28T07:10:41.585Z,111.93
2019-02-28T07:13:11.835Z,110.67
2019-02-28T07:15:39.672Z,114.47
2019-02-28T07:18:07.816Z,107.77
2019-02-28T07:20:36.138Z,121.10
2019-02-28T07:23:04.336Z,119.50
2019-02-28T07:25:33.119Z,119.07
2019-02-28T07:28:02.544Z,115.07
2019-02-28T07:30:30.637Z,111.00
2019-02-28T07:32:58.757Z,109.87
2019-02-28T07:35:32.917Z,114.80
2019-02-28T07:37:56.620Z,116.80
2019-02-28T07:40:24.996Z,113.93
2019-02-28T07:42:53.065Z,114.83
2019-02-28T07:45:21.130Z,126.73
2019-02-28T07:47:52.722Z,110.60
2019-02-28T07:50:20.780Z,105.90
2019-02-28T07:52:48.862Z,118.90
2019-02-28T07:55:16.989Z,106.33
2019-02-28T07:57:45.124Z,106.33
2019-02-28T08:00:18.216Z,106.43
2019-02-28T08:02:45.753Z,109.07
2019-02-28T08:05:14.135Z,110.87
2019-02-28T08:07:42.208Z,105.60
2019-02-28T08:10:12.730Z,107.70
2019-02-28T08:12:40.854Z,103.67
2019-02-28T08:15:10.645Z,97.00
2019-02-28T08:17:40.651Z,89.20
2019-02-28T08:20:08.515Z,92.50
2019-02-28T08:22:36.620Z,94.87
2019-02-28T08:25:07.763Z,96.03
2019-02-28T08:27:34.610Z,90.17
2019-02-28T08:30:02.868Z,98.83
2019-02-28T08:32:31.190Z,100.97
2019-02-28T08:34:59.683Z,98.00
2019-02-28T08:37:27.756Z,97.57
2019-02-28T08:39:56.100Z,93.57
2019-02-28T08:42:24.190Z,96.43
2019-02-28T08:44:58.083Z,94.50
2019-02-28T08:47:22.044Z,100.40
2019-02-28T08:49:50.122Z,94.17
2019-02-28T08:52:18.202Z,94.53
2019-02-28T08:54:46.317Z,93.80
2019-02-28T08:57:14.571Z,101.60
2019-02-28T08:59:42.686Z,88.57
2019-02-28T09:02:10.764Z,89.77
2019-02-28T09:04:41.531Z,92.47
2019-02-28T09:07:08.599Z,93.93
2019-02-28T09:09:36.691Z,88.80
2019-02-28T09:12:04.799Z,98.57
2019-02-28T09:14:33.592Z,95.60
2019-02-28T09:17:01.661Z,97.00
2019-02-28T09:19:35.676Z,97.47
2019-02-28T09:21:59.866Z,98.43
2019-02-28T09:24:28.087Z,98.83
2019-02-28T09:26:56.171Z,93.93
2019-02-28T09:29:24.292Z,102.33
2019-02-28T09:31:52.374Z,86.77
2019-02-28T09:34:20.479Z,104.83
2019-02-28T09:36:48.603Z,95.37
2019-02-28T09:39:19.645Z,97.07
2019-02-28T09:41:46.687Z,89.93
2019-02-28T09:44:14.905Z,93.27
2019-02-28T09:46:42.979Z,99.33
2019-02-28T09:49:12.966Z,98.90
2019-02-28T09:51:42.481Z,96.53
2019-02-28T09:54:10.952Z,90.00
2019-02-28T09:56:41.094Z,93.37
2019-02-28T09:59:08.893Z,92.80
2019-02-28T10:01:36.986Z,88.47
2019-02-28T10:04:05.191Z,95.80
2019-02-28T10:06:33.399Z,96.30
2019-02-28T10:09:04.713Z,87.73
2019-02-28T10:11:32.810Z,95.47
2019-02-28T10:14:00.872Z,88.77
2019-02-28T10:16:29.006Z,87.83
2019-02-28T10:18:57.084Z,95.50
2019-02-28T10:21:25.438Z,82.57
2019-02-28T10:23:56.982Z,89.97
2019-02-28T10:26:25.949Z,85.93
2019-02-28T10:28:54.033Z,86.60
2019-02-28T10:31:35.216Z,87.30
2019-02-28T10:33:52.554Z,88.33
2019-02-28T10:36:21.228Z,87.70
2019-02-28T10:38:49.300Z,84.07
2019-02-28T10:41:17.420Z,79.40
2019-02-28T10:43:49.939Z,87.93
2019-02-28T10:46:16.568Z,84.73
2019-02-28T10:48:50.879Z,88.97
2019-02-28T10:51:14.670Z,85.20
2019-02-28T10:53:42.776Z,81.33
2019-02-28T10:56:10.859Z,88.00
2019-02-28T10:58:38.941Z,84.10
2019-02-28T11:01:08.980Z,91.37
2019-02-28T11:03:37.069Z,86.43
2019-02-28T11:06:05.183Z,87.30
2019-02-28T11:08:33.271Z,82.37
2019-02-28T11:11:02.232Z,86.83
2019-02-28T11:13:32.001Z,90.07
2019-02-28T11:16:00.152Z,83.63
2019-02-28T11:18:28.240Z,86.23
2019-02-28T11:20:58.164Z,81.73
2019-02-28T11:23:26.325Z,82.83
2019-02-28T11:25:54.518Z,90.03
2019-02-28T11:28:27.950Z,81.27
2019-02-28T11:30:52.869Z,84.00
2019-02-28T11:33:22.821Z,80.10
2019-02-28T11:35:50.781Z,85.50
2019-02-28T11:38:21.524Z,81.73
2019-02-28T11:40:57.105Z,85.17
2019-02-28T11:43:18.746Z,81.50
2019-02-28T11:45:47.125Z,76.57
2019-02-28T11:48:19.058Z,80.33
2019-02-28T11:50:45.144Z,82.13
2019-02-28T11:53:13.766Z,86.10
2019-02-28T11:55:42.063Z,79.27
2019-02-28T11:58:10.210Z,80.20
2019-02-28T12:00:38.367Z,78.60
2019-02-28T12:03:06.432Z,89.30
2019-02-28T12:05:34.598Z,88.90
2019-02-28T12:08:02.700Z,84.23
2019-02-28T12:10:30.862Z,81.83
2019-02-28T12:12:59.076Z,82.40
2019-02-28T12:15:27.693Z,83.83
2019-02-28T12:17:55.799Z,84.73
2019-02-28T12:20:26.416Z,88.50
2019-02-28T12:22:53.669Z,87.10
2019-02-28T12:25:21.810Z,87.87
2019-02-28T12:27:49.917Z,88.23
2019-02-28T12:30:22.020Z,91.43
2019-02-28T12:32:52.580Z,84.37
2019-02-28T12:35:20.789Z,92.93
2019-02-28T12:37:48.875Z,94.43
2019-02-28T12:40:18.446Z,85.47
2019-02-28T12:42:46.553Z,82.53
2019-02-28T12:45:16.541Z,95.17
2019-02-28T12:47:45.897Z,92.67
2019-02-28T12:50:14.531Z,92.87
2019-02-28T12:52:42.640Z,89.10
2019-02-28T12:55:12.134Z,85.53
2019-02-28T12:57:40.337Z,88.23
2019-02-28T13:00:10.699Z,79.43
2019-02-28T13:02:39.737Z,81.90
2019-02-28T13:05:14.128Z,90.10
2019-02-28T13:07:38.783Z,88.07
2019-02-28T13:10:07.897Z,84.80
2019-02-28T13:12:36.018Z,79.53
2019-02-28T13:15:04.614Z,82.00
2019-02-28T13:17:34.335Z,81.97
2019-02-28T13:20:02.814Z,83.67
2019-02-28T13:22:30.951Z,83.50
2019-02-28T13:24:59.049Z,85.97
2019-02-28T13:27:27.215Z,78.07
2019-02-28T13:29:55.355Z,79.43
2019-02-28T13:32:23.465Z,76.43
2019-02-28T13:34:51.606Z,77.20
2019-02-28T13:37:19.696Z,74.93
2019-02-28T13:39:47.783Z,75.47
2019-02-28T13:42:15.914Z,76.17
2019-02-28T13:44:44.059Z,73.47
2019-02-28T13:47:12.273Z,80.30
2019-02-28T13:49:40.408Z,81.90
2019-02-28T13:52:08.675Z,84.77
2019-02-28T13:54:38.160Z,82.77
2019-02-28T13:57:09.742Z,81.60
2019-02-28T13:59:36.777Z,81.07
2019-02-28T14:02:04.967Z,87.27
2019-02-28T14:04:33.112Z,83.53
2019-02-28T14:07:03.252Z,89.07
2019-02-28T14:09:31.384Z,83.90
2019-02-28T14:11:59.839Z,85.83
2019-02-28T14:14:27.936Z,87.97
2019-02-28T14:16:58.388Z,95.83
2019-02-28T14:19:25.789Z,91.20
2019-02-28T14:21:55.248Z,91.93
2019-02-28T14:24:23.465Z,89.73
2019-02-28T14:26:52.004Z,92.90
2019-02-28T14:29:20.120Z,92.57
2019-02-28T14:31:48.228Z,89.57
2019-02-28T14:34:16.377Z,85.97
2019-02-28T14:36:45.167Z,97.47
2019-02-28T14:39:13.427Z,86.77
2019-02-28T14:41:41.969Z,105.83
2019-02-28T14:44:10.065Z,98.13
2019-02-28T14:46:38.268Z,97.70
2019-02-28T14:49:06.360Z,98.97
2019-02-28T14:51:34.481Z,96.83
2019-02-28T14:54:02.561Z,98.53
2019-02-28T14:56:30.956Z,95.70
2019-02-28T14:58:59.204Z,102.73
2019-02-28T15:01:27.818Z,102.17
2019-02-28T15:03:56.049Z,105.27
2019-02-28T15:06:26.391Z,108.77
2019-02-28T15:08:54.683Z,103.77
2019-02-28T15:11:22.783Z,102.83
2019-02-28T15:13:52.958Z,105.67
2019-02-28T15:16:21.642Z,107.57
2019-02-28T15:18:51.265Z,105.67
2019-02-28T15:21:19.376Z,115.70
2019-02-28T15:23:47.472Z,108.73
2019-02-28T15:26:15.703Z,106.37
2019-02-28T15:28:45.496Z,107.17
2019-02-28T15:31:13.727Z,117.37
2019-02-28T15:33:41.892Z,112.90
2019-02-28T15:36:10.086Z,117.43
2019-02-28T15:38:38.165Z,106.47
2019-02-28T15:41:06.418Z,110.33
2019-02-28T15:43:34.602Z,112.83
2019-02-28T15:46:02.833Z,107.00
2019-02-28T15:48:31.367Z,97.93
2019-02-28T15:51:00.873Z,98.60
2019-02-28T15:53:28.981Z,95.63
2019-02-28T15:55:57.056Z,93.93
2019-02-28T15:58:25.204Z,91.07
2019-02-28T16:00:53.659Z,93.93
2019-02-28T16:03:23.022Z,91.00
2019-02-28T16:05:52.754Z,99.07
2019-02-28T16:08:20.842Z,91.83
2019-02-28T16:10:53.268Z,110.50
2019-02-28T16:13:18.832Z,100.57
2019-02-28T16:15:49.999Z,104.90
2019-02-28T16:18:16.766Z,99.40
2019-02-28T16:20:45.159Z,102.00
2019-02-28T16:23:13.226Z,75.17
2019-02-28T16:25:41.409Z,101.80
2019-02-28T16:28:09.662Z,101.53
2019-02-28T16:30:37.925Z,101.60
2019-02-28T16:33:06.013Z,101.83
2019-02-28T16:35:34.208Z,106.50
2019-02-28T16:38:02.293Z,103.10
2019-02-28T16:40:30.463Z,103.73
2019-02-28T16:42:58.520Z,106.60
2019-02-28T16:45:32.311Z,91.63
2019-02-28T16:48:03.359Z,111.07
2019-02-28T16:50:31.449Z,104.03
2019-02-28T16:52:59.621Z,107.53
2019-02-28T16:55:30.932Z,98.27
2019-02-28T16:57:57.486Z,100.67
2019-02-28T17:00:25.569Z,99.90
2019-02-28T17:02:53.696Z,103.03
2019-02-28T17:05:26.675Z,103.90
2019-02-28T17:07:51.693Z,100.93
2019-02-28T17:10:22.760Z,105.50
2019-02-28T17:13:11.934Z,106.20
2019-02-28T17:15:45.758Z,102.20
2019-02-28T17:18:18.482Z,100.27
2019-02-28T17:20:46.756Z,104.63
2019-02-28T17:23:14.965Z,106.63
2019-02-28T17:25:43.446Z,98.30
2019-02-28T17:28:26.531Z,98.87
2019-02-28T17:31:22.929Z,97.10
2019-02-28T17:33:51.464Z,102.10
2019-02-28T17:36:20.526Z,104.17
2019-02-28T17:38:48.781Z,98.20
2019-02-28T17:41:16.880Z,96.53
2019-02-28T17:44:04.162Z,98.70
2019-02-28T17:46:32.315Z,97.20
2019-02-28T17:49:37.755Z,102.33
2019-02-28T17:52:12.681Z,95.87
2019-02-28T17:54:59.926Z,103.83
2019-02-28T17:57:34.543Z,97.67
2019-02-28T18:00:09.246Z,95.80
2019-02-28T18:02:51.008Z,98.73
2019-02-28T18:05:36.525Z,91.83
2019-02-28T18:08:22.748Z,97.93
2019-02-28T18:11:10.193Z,91.33
2019-02-28T18:13:56.145Z,94.90
2019-02-28T18:16:54.579Z,92.63
2019-02-28T18:19:51.086Z,92.37
2019-02-28T18:22:35.745Z,100.00
2019-02-28T18:25:13.978Z,96.43
2019-02-28T18:27:47.917Z,95.17
2019-02-28T18:30:47.325Z,93.70
2019-02-28T18:33:15.465Z,97.77
2019-02-28T18:35:43.878Z,93.57
2019-02-28T18:38:11.985Z,96.80
2019-02-28T18:40:40.904Z,93.17
2019-02-28T18:43:09.062Z,89.87
2019-02-28T18:45:38.010Z,86.83
2019-02-28T18:48:06.124Z,88.27
2019-02-28T18:50:34.341Z,98.07
2019-02-28T18:53:02.482Z,95.03
2019-02-28T18:55:34.890Z,93.83
2019-02-28T18:58:01.465Z,92.23
2019-02-28T19:00:29.605Z,94.10
2019-02-28T19:02:57.773Z,99.73
2019-02-28T19:05:25.980Z,89.57
2019-02-28T19:07:54.273Z,100.97
2019-02-28T19:10:23.475Z,93.60
2019-02-28T19:12:51.673Z,94.30
2019-02-28T19:15:21.110Z,86.87
2019-02-28T19:17:49.346Z,85.30
2019-02-28T19:20:18.723Z,82.40
2019-02-28T19:22:46.927Z,74.97
2019-02-28T19:25:15.145Z,67.50
2019-02-28T19:27:43.310Z,67.27
2019-02-28T19:30:11.947Z,63.07
2019-02-28T19:32:40.226Z,65.67
2019-02-28T19:35:08.491Z,57.23
2019-02-28T19:37:36.633Z,60.87
2019-02-28T19:40:05.056Z,68.63
2019-02-28T19:42:34.110Z,63.37
2019-02-28T19:45:02.301Z,54.67
2019-02-28T19:47:30.685Z,56.33
2019-02-28T19:49:59.830Z,53.07
2019-02-28T19:52:28.000Z,46.57
2019-02-28T19:54:56.154Z,42.97
2019-02-28T19:57:24.549Z,38.27
2019-02-28T19:59:52.738Z,39.90
2019-02-28T20:02:20.945Z,33.20
2019-02-28T20:04:49.177Z,31.43
2019-02-28T20:07:17.412Z,34.70
2019-02-28T20:09:45.616Z,30.27
2019-02-28T20:12:14.296Z,29.50
2019-02-28T20:14:42.940Z,28.83
2019-02-28T20:17:11.191Z,35.10
2019-02-28T20:19:39.416Z,26.33
2019-02-28T20:22:08.797Z,26.90
2019-02-28T20:24:36.934Z,24.40
2019-02-28T20:27:07.559Z,25.33
2019-02-28T20:29:35.672Z,23.83
2019-02-28T20:32:04.208Z,25.67
2019-02-28T20:34:32.683Z,22.33
2019-02-28T20:37:01.116Z,24.53
2019-02-28T20:39:29.378Z,24.57
2019-02-28T20:41:57.584Z,22.83
2019-02-28T20:44:26.513Z,25.03
2019-02-28T20:46:54.750Z,23.87
2019-02-28T20:49:22.864Z,25.30
2019-02-28T20:51:55.083Z,26.97
2019-02-28T20:54:20.982Z,21.37
2019-02-28T20:56:49.101Z,27.10
2019-02-28T20:59:17.362Z,21.80
2019-02-28T21:01:45.492Z,26.77
2019-02-28T21:04:13.653Z,24.67
2019-02-28T21:06:41.910Z,23.50
2019-02-28T21:09:10.311Z,24.40
2019-02-28T21:11:38.576Z,23.50
2019-02-28T21:14:06.752Z,30.40
2019-02-28T21:16:35.063Z,19.53
2019-02-28T21:19:03.510Z,20.83
2019-02-28T21:21:31.597Z,25.43
2019-02-28T21:23:59.699Z,23.50
2019-02-28T21:26:27.839Z,26.47
2019-02-28T21:28:55.984Z,27.53
2019-02-28T21:31:24.063Z,20.67
2019-02-28T21:33:52.399Z,23.10
2019-02-28T21:36:20.544Z,20.33
2019-02-28T21:38:48.877Z,21.23
2019-02-28T21:41:16.965Z,22.73
2019-02-28T21:43:45.084Z,20.13
2019-02-28T21:46:13.203Z,23.07
2019-02-28T21:48:41.345Z,23.50
2019-02-28T21:51:09.664Z,26.20
2019-02-28T21:53:37.885Z,25.90
2019-02-28T21:56:05.955Z,22.60
2019-02-28T21:58:34.033Z,27.13
2019-02-28T22:01:02.164Z,26.63
2019-02-28T22:03:30.297Z,26.20
2019-02-28T22:05:58.382Z,26.70
2019-02-28T22:08:26.502Z,26.10
2019-02-28T22:10:54.580Z,28.63
2019-02-28T22:13:22.679Z,31.07
2019-02-28T22:15:50.902Z,30.10
2019-02-28T22:18:19.057Z,33.13
2019-02-28T22:20:47.166Z,30.63
2019-02-28T22:23:15.346Z,30.07
2019-02-28T22:25:43.507Z,33.83
2019-02-28T22:28:11.681Z,33.73
2019-02-28T22:31:02.550Z,34.47
2019-02-28T22:33:56.253Z,36.27
2019-02-28T22:36:28.614Z,34.07
2019-02-28T22:38:56.798Z,37.97
2019-02-28T22:41:24.881Z,34.03
2019-02-28T22:43:52.994Z,40.03
2019-02-28T22:46:21.258Z,39.10
2019-02-28T22:48:49.363Z,36.07
2019-02-28T22:51:17.422Z,40.87
2019-02-28T22:53:45.524Z,40.80
2019-02-28T22:56:13.656Z,36.23
2019-02-28T22:58:41.734Z,42.13
2019-02-28T23:01:12.212Z,36.40
2019-02-28T23:03:40.516Z,38.47
2019-02-28T23:06:08.676Z,37.77
2019-02-28T23:08:36.801Z,38.80
2019-02-28T23:11:05.868Z,42.83
2019-02-28T23:13:33.946Z,38.37
2019-02-28T23:16:02.880Z,39.40
2019-02-28T23:18:31.320Z,38.43
2019-02-28T23:20:59.444Z,31.87
2019-02-28T23:23:27.550Z,31.37
2019-02-28T23:26:05.783Z,38.40
2019-02-28T23:28:28.156Z,38.00
2019-02-28T23:31:27.688Z,35.53
2019-02-28T23:34:01.371Z,36.53
2019-02-28T23:36:26.145Z,37.97
2019-02-28T23:38:54.261Z,38.83
2019-02-28T23:41:22.334Z,37.30
2019-02-28T23:43:50.493Z,38.80
2019-02-28T23:46:18.599Z,37.60
2019-02-28T23:48:46.804Z,40.97
2019-02-28T23:51:14.975Z,37.40
2019-02-28T23:53:43.944Z,38.60
2019-02-28T23:56:12.137Z,37.70
2019-02-28T23:58:40.211Z,39.27
